Terminal Aerodrome Forecast
Issued by NWS Birmingham, AL

Home | Current Version | Previous Version | Text Only | Print | Product List | Glossary On
Versions: 1 2 3 4 5 6 7 8 9 10 11 12 13 14 15 16 17 18 19 20 21 22 23 24 25 26 27 28
000
FTUS44 KBMX 280341 AAD
TAFBHM
TAF AMD
KBHM 280341Z 2804/2824 18008KT P6SM SCT040 BKN050 OVC090
      TEMPO 2804/2805 19012G20KT 4SM RA BR
     FM280530 23012G20KT P6SM TSRA BKN040CB OVC090
     FM280730 29005KT P6SM BKN050
     FM282000 27007KT P6SM BKN050=

USA.gov is the U.S. government's official web portal to all federal, state and local government web resources and services.